Terminal Aerodrome Forecast
Issued by NWS

Home | Current Version | Previous Version | Text Only | Print | Product List | Glossary On
Versions: 1 2 3 4 5 6 7 8 9 10 11 12 13
043
FTUS45 KRIW 241131
TAFCPR
TAF
KCPR 241131Z 2412/2512 22006KT P6SM SCT250
     FM241700 24011KT P6SM SCT250
     FM242000 25011KT P6SM SCT110
     FM250700 36006KT P6SM SCT110 SCT150=

USA.gov is the U.S. government's official web portal to all federal, state and local government web resources and services.